Time;durP1;ratioP1;P1;durP2;ratioP2;P2;SDS_P1;SDS_P2;PMS_P1;PMS_P2;Temp;Humidity;BMP_temperature;BMP_pressure;BME280_temperature;BME280_humidity;BME280_pressure;Samples;Min_cycle;Max_cycle;Signal;HPM_P1;HPM_P2
2021/03/06 00:01:47;;;;;;;2.13;1.47;;;0.90;98.00;;;;;;5071973;28;20878;-71
2021/03/06 00:04:13;;;;;;;1.20;1.00;;;0.90;98.00;;;;;;5074125;28;20901;-71
2021/03/06 00:06:40;;;;;;;1.20;1.10;;;0.90;98.00;;;;;;5072124;28;20951;-71
2021/03/06 00:09:06;;;;;;;1.20;1.00;;;0.90;98.00;;;;;;5073975;28;20843;-71
2021/03/06 00:11:33;;;;;;;1.20;1.00;;;0.90;98.00;;;;;;5071617;28;20826;-71
2021/03/06 00:14:00;;;;;;;1.43;1.10;;;0.70;98.00;;;;;;5073904;28;20463;-71
2021/03/06 00:16:27;;;;;;;1.20;0.90;;;0.70;98.00;;;;;;5071788;28;20493;-71
2021/03/06 00:18:53;;;;;;;1.30;1.23;;;0.60;98.00;;;;;;5073681;28;20451;-71
2021/03/06 00:21:20;;;;;;;1.20;1.13;;;0.60;98.00;;;;;;5071572;28;20493;-70
2021/03/06 00:23:47;;;;;;;1.20;1.00;;;0.60;98.00;;;;;;5073657;28;20468;-71
2021/03/06 00:26:14;;;;;;;1.40;1.20;;;0.60;98.00;;;;;;5071596;28;20476;-71
2021/03/06 00:28:40;;;;;;;5.90;1.87;;;0.70;98.00;;;;;;5073570;28;20961;-71
2021/03/06 00:31:08;;;;;;;1.30;1.20;;;0.70;98.00;;;;;;5071476;28;20946;-71
2021/03/06 00:33:34;;;;;;;1.20;1.00;;;0.60;98.00;;;;;;5073270;28;20459;-71
2021/03/06 00:36:01;;;;;;;1.20;1.10;;;0.40;98.00;;;;;;5071518;28;20460;-70
2021/03/06 00:38:27;;;;;;;1.20;1.00;;;0.30;98.00;;;;;;5073327;28;20459;-71
2021/03/06 00:40:54;;;;;;;1.20;1.10;;;0.20;98.00;;;;;;5071168;28;20479;-71
2021/03/06 00:43:20;;;;;;;1.87;1.63;;;0.10;98.00;;;;;;5073287;28;20892;-71
2021/03/06 00:45:47;;;;;;;1.20;1.00;;;0.10;98.00;;;;;;5072733;28;20464;-71
2021/03/06 00:48:14;;;;;;;1.50;1.30;;;0.20;98.00;;;;;;5071691;28;20869;-71
2021/03/06 00:50:41;;;;;;;1.20;1.00;;;0.20;98.00;;;;;;5072820;28;20488;-71
2021/03/06 00:53:08;;;;;;;1.70;1.20;;;0.30;98.00;;;;;;5070761;28;20536;-70
2021/03/06 00:55:36;;;;;;;1.37;1.17;;;0.40;98.00;;;;;;5073109;28;20502;-70
2021/03/06 00:58:03;;;;;;;1.70;1.40;;;0.30;98.00;;;;;;5071015;28;20821;-71
2021/03/06 01:00:31;;;;;;;1.40;1.30;;;0.20;98.00;;;;;;5072836;28;20483;-70
2021/03/06 01:02:58;;;;;;;1.20;1.00;;;0.10;98.00;;;;;;5070556;28;20604;-70
2021/03/06 01:05:25;;;;;;;1.47;1.23;;;0.00;98.00;;;;;;5072973;28;20463;-71
2021/03/06 01:07:52;;;;;;;1.20;1.10;;;-0.10;98.00;;;;;;5070185;28;20456;-70
2021/03/06 01:10:23;;;;;;;1.30;1.10;;;-0.20;98.00;;;;;;5072705;28;20494;-70
2021/03/06 01:12:50;;;;;;;1.43;1.37;;;-0.30;98.00;;;;;;5069452;28;20794;-70
2021/03/06 01:15:18;;;;;;;1.20;1.00;;;-0.30;98.00;;;;;;5072705;28;20459;-70
2021/03/06 01:17:45;;;;;;;2.07;1.57;;;-0.30;98.00;;;;;;5070741;28;20807;-70
2021/03/06 01:20:13;;;;;;;1.20;1.00;;;-0.30;98.00;;;;;;5072558;28;20950;-70
2021/03/06 01:22:41;;;;;;;1.20;1.00;;;-0.40;98.00;;;;;;5070668;28;20494;-70
2021/03/06 01:25:10;;;;;;;1.20;1.10;;;-0.40;98.00;;;;;;5072507;28;20462;-70
2021/03/06 01:27:36;;;;;;;1.30;1.20;;;-0.40;98.00;;;;;;5068940;28;20471;-70
2021/03/06 01:30:04;;;;;;;1.70;1.57;;;-0.50;98.00;;;;;;5072523;28;20464;-70
2021/03/06 01:32:31;;;;;;;1.20;1.00;;;-0.40;98.00;;;;;;5070062;28;20494;-70
2021/03/06 01:34:58;;;;;;;1.20;1.10;;;-0.60;98.00;;;;;;5072317;28;20472;-70
2021/03/06 01:37:24;;;;;;;1.40;1.07;;;-0.60;98.00;;;;;;5069319;28;20594;-70
2021/03/06 01:39:52;;;;;;;1.20;1.10;;;-0.50;98.00;;;;;;5072203;28;20485;-71
2021/03/06 01:42:19;;;;;;;1.20;1.00;;;-0.40;98.00;;;;;;5068437;28;20491;-71
2021/03/06 01:44:47;;;;;;;1.20;1.10;;;-0.30;98.00;;;;;;5072154;28;20616;-70
2021/03/06 01:47:14;;;;;;;1.20;1.00;;;-0.30;98.00;;;;;;5069076;28;20458;-70
2021/03/06 01:49:43;;;;;;;1.20;1.00;;;-0.40;98.00;;;;;;5071691;28;20572;-70
2021/03/06 01:52:10;;;;;;;1.50;1.40;;;-0.50;98.00;;;;;;5069127;28;20938;-70
2021/03/06 01:54:41;;;;;;;1.30;1.20;;;-0.50;98.00;;;;;;5071763;28;20465;-70
2021/03/06 01:57:09;;;;;;;1.20;1.03;;;-0.40;98.00;;;;;;5069239;28;20474;-70
2021/03/06 01:59:36;;;;;;;1.20;1.00;;;-0.50;98.00;;;;;;5071864;28;21077;-70
2021/03/06 02:02:04;;;;;;;1.20;1.00;;;-0.50;98.00;;;;;;5068924;28;20482;-70
2021/03/06 02:04:31;;;;;;;1.30;1.20;;;-0.50;98.00;;;;;;5071597;28;20471;-71
2021/03/06 02:06:58;;;;;;;1.20;1.10;;;-0.50;98.00;;;;;;5069401;28;20743;-70
2021/03/06 02:09:25;;;;;;;1.20;1.00;;;-0.50;98.00;;;;;;5071723;28;20490;-70
2021/03/06 02:11:58;;;;;;;1.73;1.60;;;-0.70;98.00;;;;;;5068911;28;20870;-70
2021/03/06 02:14:43;;;;;;;1.20;1.00;;;-0.70;98.00;;;;;;5071450;28;20464;-70
2021/03/06 02:17:14;;;;;;;2.57;1.30;;;-0.90;98.00;;;;;;5068994;28;20509;-70
2021/03/06 02:19:58;;;;;;;1.20;1.00;;;-1.10;98.00;;;;;;5071914;28;20489;-70
2021/03/06 02:22:38;;;;;;;1.97;1.87;;;-1.10;98.00;;;;;;5068537;28;20481;-70
2021/03/06 02:25:20;;;;;;;3.63;1.30;;;-1.30;98.00;;;;;;5071709;28;20480;-70
2021/03/06 02:27:57;;;;;;;1.20;1.00;;;-1.30;98.00;;;;;;5069364;28;20507;-70
2021/03/06 02:30:27;;;;;;;1.20;1.20;;;-1.30;98.00;;;;;;5071426;28;20480;-70
2021/03/06 02:32:55;;;;;;;1.20;1.10;;;-1.40;98.00;;;;;;5068441;28;20457;-70
2021/03/06 02:35:26;;;;;;;1.20;1.00;;;-1.50;98.00;;;;;;5071242;28;20709;-70
2021/03/06 02:37:56;;;;;;;1.20;1.10;;;-1.60;98.00;;;;;;5068792;28;20464;-70
2021/03/06 02:40:23;;;;;;;1.20;1.10;;;-1.70;98.00;;;;;;5071220;28;20455;-70
2021/03/06 02:42:52;;;;;;;1.20;1.08;;;-1.70;98.00;;;;;;5068809;28;20453;-70
2021/03/06 02:45:20;;;;;;;1.20;1.00;;;-1.80;98.00;;;;;;5071189;28;20672;-70
2021/03/06 02:47:48;;;;;;;1.60;1.60;;;-1.70;98.00;;;;;;5068444;28;20497;-70
2021/03/06 02:50:15;;;;;;;1.80;1.33;;;-1.80;98.00;;;;;;5071090;28;20947;-71
2021/03/06 02:52:42;;;;;;;1.30;1.20;;;-1.80;98.00;;;;;;5068798;28;20514;-70
2021/03/06 02:55:11;;;;;;;1.30;1.25;;;-2.00;98.00;;;;;;5071170;28;20460;-70
2021/03/06 02:58:00;;;;;;;1.20;1.00;;;-2.00;98.00;;;;;;5068781;28;20261;-70
2021/03/06 03:00:37;;;;;;;1.20;1.10;;;-2.10;98.00;;;;;;5070952;28;20199;-70
2021/03/06 03:03:18;;;;;;;1.20;1.10;;;-2.10;98.00;;;;;;5068509;28;20202;-70
2021/03/06 03:05:52;;;;;;;1.20;1.00;;;-2.10;98.00;;;;;;5070737;28;20539;-70
2021/03/06 03:08:23;;;;;;;2.07;1.20;;;-2.10;98.00;;;;;;5068645;28;20211;-70
2021/03/06 03:10:54;;;;;;;1.30;1.10;;;-2.20;98.00;;;;;;5070735;28;20915;-70
2021/03/06 03:13:23;;;;;;;1.50;1.48;;;-2.10;98.00;;;;;;5068894;28;20456;-70
2021/03/06 03:15:52;;;;;;;1.20;1.00;;;-2.10;98.00;;;;;;5074949;28;20257;-70
2021/03/06 03:18:24;;;;;;;1.77;1.48;;;-2.10;98.00;;;;;;5073231;28;20210;-70
2021/03/06 03:20:54;;;;;;;1.20;1.00;;;-2.20;98.00;;;;;;5074910;28;20233;-70
2021/03/06 03:23:27;;;;;;;1.20;1.10;;;-2.20;98.00;;;;;;5072961;28;20206;-70
2021/03/06 03:25:54;;;;;;;4.93;2.58;;;-2.20;98.00;;;;;;5075067;28;20230;-70
2021/03/06 03:28:21;;;;;;;1.42;1.33;;;-2.20;98.00;;;;;;5072693;28;20198;-70
2021/03/06 03:30:49;;;;;;;2.03;1.85;;;-2.10;98.00;;;;;;5075342;28;20277;-70
2021/03/06 03:33:17;;;;;;;1.98;1.65;;;-2.20;98.00;;;;;;5072371;28;20203;-70
2021/03/06 03:35:45;;;;;;;1.20;1.10;;;-2.30;98.00;;;;;;5074768;28;20204;-70
2021/03/06 03:38:12;;;;;;;4.22;1.60;;;-2.20;98.00;;;;;;5072422;28;20195;-70
2021/03/06 03:40:39;;;;;;;1.20;1.00;;;-2.30;98.00;;;;;;5074633;28;20601;-70
2021/03/06 03:43:06;;;;;;;2.73;1.40;;;-2.30;98.00;;;;;;5072397;28;20642;-70
2021/03/06 03:45:33;;;;;;;1.20;1.00;;;-2.20;98.00;;;;;;5074334;28;20460;-70
2021/03/06 03:48:01;;;;;;;1.20;1.00;;;-2.20;98.00;;;;;;5072118;28;20492;-70
2021/03/06 03:50:27;;;;;;;1.30;1.20;;;-2.10;98.00;;;;;;5074469;28;20210;-70
2021/03/06 03:52:55;;;;;;;1.20;1.00;;;-2.10;98.00;;;;;;5071968;28;20252;-70
2021/03/06 03:55:21;;;;;;;1.30;1.10;;;-2.10;98.00;;;;;;5073095;28;20285;-70
2021/03/06 03:57:48;;;;;;;1.20;1.00;;;-2.20;98.00;;;;;;5071840;28;20847;-70
2021/03/06 04:00:17;;;;;;;1.20;1.00;;;-2.40;98.00;;;;;;5074122;28;20252;-70
2021/03/06 04:02:44;;;;;;;1.20;1.00;;;-2.40;98.00;;;;;;5071741;28;20199;-70
2021/03/06 04:05:11;;;;;;;1.20;1.10;;;-2.40;98.00;;;;;;5074131;28;20372;-70
2021/03/06 04:07:46;;;;;;;1.20;1.00;;;-2.40;98.00;;;;;;5071611;28;20210;-70
2021/03/06 04:10:16;;;;;;;2.15;1.80;;;-2.40;98.00;;;;;;5074091;28;20234;-70
2021/03/06 04:12:43;;;;;;;1.20;1.00;;;-2.40;98.00;;;;;;5071531;28;20353;-70
2021/03/06 04:15:12;;;;;;;1.20;1.08;;;-2.20;98.00;;;;;;5072645;28;20202;-70
2021/03/06 04:17:39;;;;;;;1.20;1.10;;;-2.20;98.00;;;;;;5071389;28;20199;-70
2021/03/06 04:20:07;;;;;;;1.20;1.13;;;-2.10;98.00;;;;;;5073790;28;20202;-70
2021/03/06 04:22:34;;;;;;;1.48;1.42;;;-2.20;98.00;;;;;;5071277;28;20262;-70
2021/03/06 04:25:01;;;;;;;1.95;1.35;;;-2.20;98.00;;;;;;5073083;28;20217;-70
2021/03/06 04:27:28;;;;;;;1.20;0.98;;;-2.30;98.00;;;;;;5071069;28;20307;-70
2021/03/06 04:29:55;;;;;;;1.83;1.30;;;-2.20;98.00;;;;;;5072297;28;20252;-70
2021/03/06 04:32:22;;;;;;;1.20;1.00;;;-2.30;98.00;;;;;;5071378;28;20204;-70
2021/03/06 04:34:48;;;;;;;1.80;1.38;;;-2.30;98.00;;;;;;5073547;28;20691;-70
2021/03/06 04:37:16;;;;;;;1.77;1.45;;;-2.40;98.00;;;;;;5071055;28;20569;-70
2021/03/06 04:39:43;;;;;;;1.20;1.00;;;-2.50;98.00;;;;;;5073381;28;20202;-70
2021/03/06 04:42:10;;;;;;;1.20;1.00;;;-2.40;98.00;;;;;;5071269;28;20705;-70
2021/03/06 04:44:37;;;;;;;7.03;2.88;;;-2.40;98.00;;;;;;5073190;28;20203;-70
2021/03/06 04:47:05;;;;;;;1.20;1.00;;;-2.40;98.00;;;;;;5069873;28;20206;-69
2021/03/06 04:49:32;;;;;;;1.20;1.10;;;-2.40;98.00;;;;;;5073566;28;20661;-70
2021/03/06 04:52:00;;;;;;;1.20;1.00;;;-2.60;98.00;;;;;;5071267;28;20234;-70
2021/03/06 04:54:27;;;;;;;1.20;1.00;;;-2.60;98.00;;;;;;5072163;28;20219;-70
2021/03/06 04:56:54;;;;;;;1.20;1.02;;;-2.70;98.00;;;;;;5071121;28;20198;-70
2021/03/06 04:59:21;;;;;;;5.07;2.03;;;-2.80;98.00;;;;;;5073090;28;20198;-70
2021/03/06 05:01:50;;;;;;;1.20;1.10;;;-2.80;98.00;;;;;;5070346;28;20811;-70
2021/03/06 05:04:17;;;;;;;1.20;1.10;;;-2.90;98.00;;;;;;5071589;28;20207;-70
2021/03/06 05:06:45;;;;;;;1.20;1.05;;;-2.80;98.00;;;;;;5070926;28;20203;-70
2021/03/06 05:09:12;;;;;;;4.88;1.45;;;-2.80;98.00;;;;;;5072953;28;20218;-70
2021/03/06 05:11:38;;;;;;;1.20;1.00;;;-2.90;98.00;;;;;;5070779;28;20238;-70
2021/03/06 05:14:05;;;;;;;1.20;1.08;;;-2.90;98.00;;;;;;5072887;28;20242;-70
2021/03/06 05:16:32;;;;;;;1.20;1.10;;;-2.90;98.00;;;;;;5070612;28;20203;-70
2021/03/06 05:18:59;;;;;;;1.20;1.10;;;-3.00;98.00;;;;;;5072982;28;20207;-70
2021/03/06 05:21:26;;;;;;;1.20;1.00;;;-3.10;98.00;;;;;;5070412;28;20249;-70
2021/03/06 05:23:52;;;;;;;1.20;1.10;;;-3.00;98.00;;;;;;5072660;28;20210;-70
2021/03/06 05:26:19;;;;;;;1.20;1.10;;;-3.00;98.00;;;;;;5071168;28;20272;-70
2021/03/06 05:28:45;;;;;;;1.20;1.00;;;-3.00;98.00;;;;;;5071319;28;20211;-69
2021/03/06 05:31:12;;;;;;;1.20;1.13;;;-3.00;98.00;;;;;;5072538;28;20199;-69
2021/03/06 05:33:39;;;;;;;1.77;1.77;;;-3.10;98.00;;;;;;5070118;28;20635;-70
2021/03/06 05:36:07;;;;;;;1.40;1.27;;;-3.10;98.00;;;;;;5070995;28;20213;-70
2021/03/06 05:38:34;;;;;;;1.20;1.00;;;-3.00;98.00;;;;;;5069217;28;20267;-70
2021/03/06 05:41:00;;;;;;;3.00;1.58;;;-3.00;98.00;;;;;;5072217;28;20218;-70
2021/03/06 05:43:27;;;;;;;1.20;1.20;;;-3.00;98.00;;;;;;5069891;28;20624;-70
2021/03/06 05:45:56;;;;;;;1.20;1.00;;;-2.80;98.00;;;;;;5071991;28;20238;-70
2021/03/06 05:48:22;;;;;;;1.20;1.00;;;-2.90;98.00;;;;;;5069825;28;20316;-70
2021/03/06 05:50:50;;;;;;;1.20;1.00;;;-2.80;98.00;;;;;;5071964;28;20883;-70
2021/03/06 05:53:20;;;;;;;1.20;1.10;;;-2.70;98.00;;;;;;5069784;28;20214;-70
2021/03/06 05:55:51;;;;;;;1.83;1.75;;;-2.80;98.00;;;;;;5071956;28;20532;-70
2021/03/06 05:58:20;;;;;;;1.20;1.10;;;-2.80;98.00;;;;;;5069724;28;20206;-70
2021/03/06 06:00:48;;;;;;;1.20;1.13;;;-2.90;98.00;;;;;;5070391;28;20606;-70
2021/03/06 06:03:17;;;;;;;1.20;1.10;;;-2.80;98.00;;;;;;5069657;28;20786;-70
2021/03/06 06:05:45;;;;;;;1.40;1.13;;;-2.70;98.00;;;;;;5071593;28;20221;-70
2021/03/06 06:08:12;;;;;;;1.45;1.40;;;-2.70;98.00;;;;;;5069592;28;20283;-70
2021/03/06 06:10:39;;;;;;;1.20;1.10;;;-2.50;98.00;;;;;;5071553;28;20211;-72
2021/03/06 06:13:06;;;;;;;1.20;1.10;;;-2.50;98.00;;;;;;5069500;28;20237;-70
2021/03/06 06:15:33;;;;;;;1.20;1.08;;;-2.40;98.00;;;;;;5071384;28;20241;-70
2021/03/06 06:17:59;;;;;;;1.20;1.00;;;-2.30;98.00;;;;;;5069468;28;20209;-70
2021/03/06 06:20:26;;;;;;;1.60;1.42;;;-2.20;98.00;;;;;;5071437;28;20224;-70
2021/03/06 06:23:08;;;;;;;1.38;1.30;;;-2.30;98.00;;;;;;5069308;28;20218;-70
2021/03/06 06:25:34;;;;;;;1.20;1.00;;;-2.40;98.00;;;;;;5069842;28;20234;-70
2021/03/06 06:28:04;;;;;;;1.75;1.67;;;-2.40;98.00;;;;;;5069293;28;20834;-70
2021/03/06 06:30:31;;;;;;;1.75;1.30;;;-2.50;98.00;;;;;;5071145;28;20207;-70
2021/03/06 06:32:58;;;;;;;1.20;1.00;;;-2.50;98.00;;;;;;5069277;28;20199;-70
2021/03/06 06:35:24;;;;;;;1.50;1.23;;;-2.60;98.00;;;;;;5071531;28;20249;-70
2021/03/06 06:38:02;;;;;;;1.20;1.10;;;-2.60;98.00;;;;;;5069180;28;20202;-70
2021/03/06 06:40:30;;;;;;;2.33;1.40;;;-2.60;98.00;;;;;;5071518;28;20207;-70
2021/03/06 06:42:58;;;;;;;1.65;1.40;;;-2.50;98.00;;;;;;5069040;28;20574;-70
2021/03/06 06:45:35;;;;;;;1.40;1.30;;;-2.60;98.00;;;;;;5071313;28;20695;-70
2021/03/06 06:48:09;;;;;;;1.77;1.55;;;-2.60;98.00;;;;;;5068621;28;20198;-70
2021/03/06 06:50:36;;;;;;;1.40;1.27;;;-2.50;98.00;;;;;;5071204;28;20225;-70
2021/03/06 06:53:03;;;;;;;1.85;1.50;;;-2.60;98.00;;;;;;5068651;28;20231;-70
2021/03/06 06:55:37;;;;;;;1.20;1.00;;;-2.70;98.00;;;;;;5071279;28;20242;-70
2021/03/06 06:58:04;;;;;;;1.20;1.00;;;-2.60;98.00;;;;;;5068791;28;20665;-70
2021/03/06 07:00:35;;;;;;;1.20;1.10;;;-2.50;98.00;;;;;;5070806;28;20255;-70
2021/03/06 07:03:03;;;;;;;2.50;1.80;;;-2.40;98.00;;;;;;5068473;28;20306;-70
2021/03/06 07:05:33;;;;;;;1.20;1.10;;;-2.20;98.00;;;;;;5070478;28;20203;-70
2021/03/06 07:08:00;;;;;;;1.20;1.00;;;-2.00;98.00;;;;;;5067077;28;20233;-70
2021/03/06 07:10:36;;;;;;;1.20;1.20;;;-1.90;98.00;;;;;;5070913;28;20460;-70
2021/03/06 07:13:04;;;;;;;1.20;1.10;;;-1.70;98.00;;;;;;5068619;28;20459;-70
2021/03/06 07:15:37;;;;;;;1.20;1.00;;;-1.60;98.00;;;;;;5070933;28;20591;-71
2021/03/06 07:18:05;;;;;;;1.20;1.20;;;-1.40;98.00;;;;;;5068528;28;20461;-71
2021/03/06 07:20:36;;;;;;;1.20;0.97;;;-1.20;98.00;;;;;;5070730;28;20716;-70
2021/03/06 07:23:16;;;;;;;1.20;1.07;;;-1.10;98.00;;;;;;5067422;28;20457;-70
2021/03/06 07:25:45;;;;;;;2.75;2.08;;;-1.00;98.00;;;;;;5070854;28;20497;-71
2021/03/06 07:28:12;;;;;;;1.20;1.00;;;-0.90;98.00;;;;;;5068409;28;20238;-71
2021/03/06 07:30:40;;;;;;;2.37;1.47;;;-0.70;98.00;;;;;;5070991;28;20208;-70
2021/03/06 07:33:08;;;;;;;1.20;1.10;;;-0.50;98.00;;;;;;5067017;28;20951;-70
2021/03/06 07:35:36;;;;;;;1.20;1.00;;;-0.40;98.00;;;;;;5070590;28;20214;-71
2021/03/06 07:38:06;;;;;;;1.20;1.00;;;-0.30;98.00;;;;;;5068626;28;20954;-71
2021/03/06 07:40:39;;;;;;;1.63;1.23;;;-0.20;98.00;;;;;;5070861;28;20896;-71
2021/03/06 07:43:13;;;;;;;1.20;1.20;;;-0.10;98.00;;;;;;5068180;28;21005;-70
2021/03/06 07:45:43;;;;;;;1.73;1.60;;;0.00;98.00;;;;;;5070411;28;20457;-71
2021/03/06 07:48:13;;;;;;;1.20;1.10;;;0.10;98.00;;;;;;5068346;28;20458;-70
2021/03/06 07:50:42;;;;;;;1.20;1.00;;;0.10;97.80;;;;;;5070667;28;20463;-71
2021/03/06 07:53:10;;;;;;;2.10;2.00;;;0.10;98.00;;;;;;5068168;28;20479;-70
2021/03/06 07:55:37;;;;;;;1.20;0.90;;;0.20;98.00;;;;;;5070531;28;20948;-70
2021/03/06 07:58:08;;;;;;;1.57;1.53;;;0.20;97.60;;;;;;5068176;28;20449;-71
2021/03/06 08:00:54;;;;;;;4.60;1.87;;;0.20;98.00;;;;;;5071072;28;20532;-70
2021/03/06 08:03:37;;;;;;;1.20;1.00;;;0.30;98.00;;;;;;5071507;28;20480;-71
2021/03/06 08:06:06;;;;;;;1.20;1.00;;;0.30;98.00;;;;;;5074219;28;20450;-71
2021/03/06 08:08:55;;;;;;;1.20;1.00;;;0.40;98.00;;;;;;5071413;28;20486;-70
2021/03/06 08:11:23;;;;;;;1.70;1.43;;;0.60;98.00;;;;;;5073966;28;20450;-70
2021/03/06 08:13:52;;;;;;;1.20;1.10;;;0.80;98.00;;;;;;5071455;28;20461;-70
2021/03/06 08:16:41;;;;;;;1.20;1.00;;;0.90;96.80;;;;;;5073940;28;20462;-70
2021/03/06 08:19:25;;;;;;;1.20;1.00;;;1.00;97.30;;;;;;5073767;28;20493;-70
2021/03/06 08:21:53;;;;;;;1.33;1.20;;;1.10;96.70;;;;;;5071436;28;20482;-71
2021/03/06 08:24:28;;;;;;;6.23;2.30;;;1.20;96.70;;;;;;5073533;28;20459;-70
2021/03/06 08:27:15;;;;;;;1.20;1.00;;;1.30;95.60;;;;;;5071532;28;20463;-70
2021/03/06 08:29:42;;;;;;;1.20;1.00;;;1.40;96.30;;;;;;5073527;28;20476;-70
2021/03/06 08:32:12;;;;;;;1.20;1.10;;;1.60;95.40;;;;;;5070008;28;20464;-69
2021/03/06 08:34:41;;;;;;;1.20;1.00;;;1.70;95.20;;;;;;5073039;28;20529;-70
2021/03/06 08:37:37;;;;;;;1.20;1.00;;;1.80;95.40;;;;;;5071146;28;20459;-68
2021/03/06 08:40:08;;;;;;;1.77;1.27;;;2.10;95.00;;;;;;5030895;28;20871;-68
2021/03/06 08:42:36;;;;;;;1.30;1.23;;;2.10;94.50;;;;;;5062111;28;20688;-68
2021/03/06 08:45:06;;;;;;;1.20;1.13;;;2.20;94.40;;;;;;5072917;28;20463;-68
2021/03/06 08:47:36;;;;;;;1.20;1.00;;;2.30;93.80;;;;;;5071059;28;20507;-68
2021/03/06 08:50:05;;;;;;;2.83;1.50;;;2.50;93.80;;;;;;5073131;28;20464;-68
2021/03/06 08:52:32;;;;;;;1.20;1.10;;;2.60;94.00;;;;;;5071146;28;20827;-68
2021/03/06 08:54:59;;;;;;;1.20;1.13;;;2.70;94.00;;;;;;5073518;28;20484;-68
2021/03/06 08:57:31;;;;;;;1.20;1.10;;;2.90;93.40;;;;;;5071087;28;20543;-69
2021/03/06 08:59:59;;;;;;;1.20;0.90;;;3.00;92.50;;;;;;5073339;28;20476;-68
2021/03/06 09:02:30;;;;;;;1.60;1.17;;;3.10;91.60;;;;;;5070952;28;20522;-69
2021/03/06 09:05:11;;;;;;;1.20;0.90;;;3.30;90.30;;;;;;5073162;28;20498;-70
2021/03/06 09:07:39;;;;;;;1.20;1.00;;;3.40;90.20;;;;;;5069528;28;20466;-68
2021/03/06 09:10:22;;;;;;;1.33;1.23;;;3.70;89.60;;;;;;5072399;28;20849;-69
2021/03/06 09:12:50;;;;;;;1.20;1.10;;;3.90;88.80;;;;;;5069845;28;20500;-68
2021/03/06 09:15:29;;;;;;;1.20;1.03;;;4.10;88.60;;;;;;5072485;28;20496;-69
2021/03/06 09:17:57;;;;;;;1.20;1.00;;;4.20;87.40;;;;;;5070029;28;20452;-68
2021/03/06 09:20:25;;;;;;;2.60;1.23;;;4.30;86.00;;;;;;5072212;28;20489;-68
2021/03/06 09:22:53;;;;;;;2.53;1.40;;;4.30;86.60;;;;;;5069814;28;21002;-70
2021/03/06 09:25:34;;;;;;;1.20;1.00;;;4.30;86.40;;;;;;5072287;28;20457;-73
2021/03/06 09:28:02;;;;;;;5.57;2.53;;;4.40;86.10;;;;;;5069845;28;20464;-71
2021/03/06 09:30:31;;;;;;;1.20;1.20;;;4.50;85.80;;;;;;5071884;28;20460;-72
2021/03/06 09:32:58;;;;;;;1.20;1.10;;;4.60;85.90;;;;;;5069719;28;20558;-71
2021/03/06 09:35:26;;;;;;;1.20;1.00;;;4.70;85.30;;;;;;5072012;28;20465;-69
2021/03/06 09:38:10;;;;;;;1.20;1.00;;;4.80;85.30;;;;;;5069753;28;20828;-69
2021/03/06 09:40:42;;;;;;;1.20;1.00;;;5.10;84.10;;;;;;5071901;28;20967;-69
2021/03/06 09:43:10;;;;;;;1.60;1.60;;;5.30;82.80;;;;;;5068531;28;20525;-69
2021/03/06 09:45:38;;;;;;;1.20;1.00;;;5.50;83.70;;;;;;5072027;28;20886;-69
2021/03/06 09:48:11;;;;;;;1.20;1.10;;;5.70;81.90;;;;;;5068803;28;20458;-69
2021/03/06 09:50:43;;;;;;;1.20;1.00;;;5.70;81.40;;;;;;5072055;28;20467;-69
2021/03/06 09:53:20;;;;;;;1.60;1.53;;;5.70;80.80;;;;;;5069265;28;20516;-69
2021/03/06 09:55:48;;;;;;;1.30;1.13;;;5.80;81.50;;;;;;5071780;28;20479;-69
2021/03/06 09:58:20;;;;;;;2.07;1.30;;;5.80;80.90;;;;;;5069767;28;20457;-69
2021/03/06 10:00:48;;;;;;;1.20;1.03;;;5.80;79.70;;;;;;5072162;28;20827;-69
2021/03/06 10:03:31;;;;;;;1.87;1.63;;;5.90;79.90;;;;;;5068203;28;20489;-69
2021/03/06 10:06:02;;;;;;;2.33;1.50;;;6.00;79.90;;;;;;5072296;28;20516;-69
2021/03/06 10:08:31;;;;;;;1.30;1.17;;;6.10;79.40;;;;;;5069640;28;20488;-69
2021/03/06 10:10:59;;;;;;;1.93;1.23;;;6.10;78.10;;;;;;5072181;28;20457;-69
2021/03/06 10:13:27;;;;;;;1.20;1.10;;;6.40;78.80;;;;;;5069854;28;20554;-69
2021/03/06 10:15:58;;;;;;;2.13;1.30;;;6.60;78.40;;;;;;5071841;28;20471;-69
2021/03/06 10:18:27;;;;;;;1.20;0.90;;;6.70;77.10;;;;;;5069331;28;20522;-69
2021/03/06 10:20:54;;;;;;;3.43;1.77;;;6.80;77.30;;;;;;5071591;28;20953;-69
2021/03/06 10:23:32;;;;;;;1.20;1.00;;;6.90;76.60;;;;;;5068742;28;20495;-69
2021/03/06 10:26:19;;;;;;;1.20;1.03;;;7.10;75.60;;;;;;5071604;28;20465;-69
2021/03/06 10:28:46;;;;;;;1.20;1.10;;;7.30;75.80;;;;;;5068980;28;21164;-69
2021/03/06 10:31:30;;;;;;;2.77;1.73;;;7.30;75.30;;;;;;5071584;28;20455;-69
2021/03/06 10:33:58;;;;;;;1.20;0.90;;;7.30;75.70;;;;;;5069066;28;20468;-70
2021/03/06 10:36:24;;;;;;;1.20;0.97;;;7.50;75.70;;;;;;5071141;28;20507;-70
2021/03/06 10:39:12;;;;;;;1.50;1.33;;;7.50;74.80;;;;;;5069096;28;20462;-70
2021/03/06 10:41:39;;;;;;;1.23;1.00;;;7.60;75.00;;;;;;5071302;28;20495;-70
2021/03/06 10:44:06;;;;;;;1.77;1.27;;;7.90;73.70;;;;;;5068922;28;20466;-70
2021/03/06 10:46:32;;;;;;;1.47;1.10;;;8.00;73.50;;;;;;5071165;28;20500;-74
2021/03/06 10:49:00;;;;;;;1.20;1.00;;;8.00;72.40;;;;;;5069054;28;20467;-72
2021/03/06 10:51:41;;;;;;;1.83;1.47;;;7.90;73.50;;;;;;5071213;28;20459;-71
2021/03/06 10:54:11;;;;;;;1.23;1.07;;;7.90;72.80;;;;;;5067860;28;20462;-80
2021/03/06 10:56:39;;;;;;;1.40;1.20;;;7.90;71.30;;;;;;5069189;28;20459;-78
2021/03/06 10:59:08;;;;;;;3.33;1.67;;;8.00;71.20;;;;;;5068786;28;20458;-78
2021/03/06 11:01:45;;;;;;;1.20;1.10;;;8.10;70.80;;;;;;5070229;28;20506;-76
2021/03/06 11:04:28;;;;;;;1.20;1.10;;;8.50;72.10;;;;;;5068780;28;20468;-75
2021/03/06 11:06:57;;;;;;;1.20;1.00;;;8.70;70.40;;;;;;5067491;28;20468;-76
2021/03/06 11:09:29;;;;;;;1.70;1.30;;;8.80;70.20;;;;;;5070909;28;20530;-75
2021/03/06 11:11:57;;;;;;;1.93;1.50;;;9.00;69.30;;;;;;5068822;28;20506;-76
2021/03/06 11:14:25;;;;;;;1.60;1.20;;;9.20;68.70;;;;;;5079857;28;20481;-74
2021/03/06 11:16:52;;;;;;;1.50;1.47;;;9.10;68.40;;;;;;5088794;28;20951;-78
2021/03/06 11:19:19;;;;;;;1.20;1.10;;;9.20;69.00;;;;;;5090325;28;20966;-76
2021/03/06 11:21:46;;;;;;;1.20;1.20;;;9.40;68.70;;;;;;5089146;28;20523;-82
2021/03/06 11:24:13;;;;;;;1.20;1.00;;;9.40;66.20;;;;;;5089228;28;20452;-81
2021/03/06 11:26:41;;;;;;;1.73;1.37;;;9.50;67.20;;;;;;5090446;28;20941;-76
2021/03/06 11:29:08;;;;;;;1.20;1.10;;;9.50;67.60;;;;;;5088213;28;20452;-76
2021/03/06 11:31:35;;;;;;;1.20;1.00;;;9.50;66.80;;;;;;5090463;28;20536;-76
2021/03/06 11:34:01;;;;;;;1.20;0.90;;;9.90;67.50;;;;;;5088298;28;20459;-76
2021/03/06 11:36:28;;;;;;;1.20;1.10;;;10.00;67.40;;;;;;5092576;28;20934;-77
2021/03/06 11:38:56;;;;;;;1.20;1.00;;;10.10;65.70;;;;;;5092708;28;20468;-77
2021/03/06 11:41:26;;;;;;;1.30;1.10;;;10.30;65.60;;;;;;5094170;28;20492;-77
2021/03/06 11:43:54;;;;;;;1.30;1.13;;;10.30;62.70;;;;;;5092352;28;20448;-77
2021/03/06 11:46:21;;;;;;;1.20;1.00;;;10.50;64.40;;;;;;5094944;28;20935;-78
2021/03/06 11:48:48;;;;;;;1.20;1.00;;;10.80;63.40;;;;;;5092453;28;20505;-76
2021/03/06 11:51:15;;;;;;;1.20;1.03;;;10.90;62.50;;;;;;5094340;28;20463;-75
2021/03/06 11:53:42;;;;;;;1.20;1.00;;;11.00;61.60;;;;;;5091031;28;20805;-76
2021/03/06 11:56:11;;;;;;;1.20;1.07;;;11.10;60.80;;;;;;5094263;28;20453;-75
2021/03/06 11:58:38;;;;;;;1.20;1.10;;;11.00;59.60;;;;;;5091923;28;20460;-76
2021/03/06 12:01:05;;;;;;;1.20;1.00;;;10.90;58.70;;;;;;5094082;28;20856;-76
2021/03/06 12:03:32;;;;;;;1.33;1.10;;;10.80;59.50;;;;;;5091502;28;20455;-76
2021/03/06 12:05:59;;;;;;;1.20;1.07;;;10.80;58.80;;;;;;5093865;28;20497;-76
2021/03/06 12:08:26;;;;;;;1.20;1.00;;;10.70;58.90;;;;;;5091623;28;20455;-76
2021/03/06 12:10:52;;;;;;;1.20;1.00;;;10.40;59.80;;;;;;5094130;28;20517;-78
2021/03/06 12:13:19;;;;;;;1.23;1.10;;;10.30;59.90;;;;;;5091923;28;20454;-78
2021/03/06 12:15:46;;;;;;;1.73;1.20;;;10.40;60.70;;;;;;5094392;28;20475;-78
2021/03/06 12:18:13;;;;;;;1.20;1.13;;;;;;;;;;5091716;28;20839;-77
2021/03/06 12:20:40;;;;;;;1.30;1.10;;;10.70;59.40;;;;;;5093801;28;20455;-78
2021/03/06 12:23:06;;;;;;;1.20;1.00;;;10.80;58.90;;;;;;5091600;28;20475;-79
2021/03/06 12:25:34;;;;;;;1.20;1.00;;;10.40;59.00;;;;;;5093584;28;20477;-79
2021/03/06 12:28:01;;;;;;;1.30;1.00;;;10.20;59.20;;;;;;5091011;28;20456;-78
2021/03/06 12:30:27;;;;;;;1.50;1.27;;;10.00;59.90;;;;;;5093028;28;20467;-74
2021/03/06 12:32:54;;;;;;;1.20;1.10;;;9.90;60.80;;;;;;5091002;28;20856;-76
2021/03/06 12:35:23;;;;;;;1.20;1.00;;;9.70;59.90;;;;;;5093363;28;21016;-76
2021/03/06 12:37:49;;;;;;;1.37;1.27;;;9.80;62.10;;;;;;5090609;28;20455;-75
2021/03/06 12:40:17;;;;;;;1.40;1.10;;;9.90;61.10;;;;;;5092913;28;20918;-75
2021/03/06 12:42:46;;;;;;;1.20;1.00;;;9.80;61.40;;;;;;5091129;28;20482;-73
2021/03/06 12:45:14;;;;;;;1.20;1.00;;;9.60;61.60;;;;;;5093176;28;20469;-73
2021/03/06 12:47:42;;;;;;;1.40;1.10;;;9.50;62.10;;;;;;5089230;28;20471;-73
2021/03/06 12:50:10;;;;;;;1.40;1.27;;;9.50;63.00;;;;;;5091940;28;20488;-74
2021/03/06 12:52:38;;;;;;;1.30;1.20;;;9.50;63.00;;;;;;5090973;28;20486;-74
2021/03/06 12:55:06;;;;;;;1.30;1.13;;;9.60;61.40;;;;;;5093520;28;20468;-73
2021/03/06 12:57:33;;;;;;;1.20;1.00;;;9.50;59.80;;;;;;5091081;28;20484;-73
2021/03/06 13:00:00;;;;;;;1.93;1.37;;;9.40;61.30;;;;;;5092425;28;20572;-74
2021/03/06 13:02:26;;;;;;;1.73;1.23;;;9.40;62.30;;;;;;5090319;28;20523;-73